EDDW Airport Information

Runway Information
Runway 05 Length 2297 ft width 75 ft
Elevation 0 ft Threshold 0 ft Heading 52
Runway 23 Length 2297 ft Width 75 ft
Elevation 13 ft Threshold 0 ft Heading 232
Runway 09 Length 6693 ft width 148 ft
Elevation 13 ft Threshold 0 ft Heading 88
Runway 27 Length 6693 ft Width 148 ft
Elevation 14 ft Threshold 0 ft Heading 268
Airport Frequencies
Type AFIS Name INFO Frequency 125.1 MHZ
Type APP Name RADAR Frequency 124.8 MHZ
Type ATIS Name ATIS Frequency 117.45 MHZ
Type GND Name GND Frequency 121.75 MHZ
Type TWR Name TWR Frequency 120.325 MHZ
Airport Navaids
Type VOR-DME Name Bremen Frequency 117450 KHZ
Airport Weather Information & NOTAM
ADDS - METARS form results

(1156 UTC 12 August 2020)
Data provider http://aviationweather.gov/metar/data/
 
METAR text: EDDW 121150Z 10016KT 070V130 CAVOK 32/12 Q1016 BECMG 11015G25KT
Conditions at: EDDW (BREMEN , DE) observed 1150 UTC 12 August 2020
Temperature: 32.0°C (90°F)
Dewpoint: 12.0°C (54°F) [RH = 30%]
Pressure (altimeter): 30.00 inches Hg (1016.0 mb)
Winds: from the E (100 degrees) at 18 MPH (16 knots; 8.2 m/s)
Visibility: 6 or more miles (10+ km)
Ceiling: ceiling and visibility are OK
Clouds: unknown
Weather: no significant weather observed at this time

METAR text: EDDW 121120Z 11014KT 080V140 CAVOK 31/12 Q1017 NOSIG
Conditions at: EDDW (BREMEN , DE) observed 1120 UTC 12 August 2020
Temperature: 31.0°C (88°F)
Dewpoint: 12.0°C (54°F) [RH = 31%]
Pressure (altimeter): 30.03 inches Hg (1017.0 mb)
Winds: from the ESE (110 degrees) at 16 MPH (14 knots; 7.2 m/s)
Visibility: 6 or more miles (10+ km)
Ceiling: ceiling and visibility are OK
Clouds: unknown
Weather: no significant weather observed at this time

Forecast for: EDDW (BREMEN , DE)
Text: TAF EDDW 121100Z 1212/1312 11012KT CAVOK
Forecast period: 1200 to 1700 UTC 12 August 2020
Forecast type: FROM: standard forecast or significant change
Winds: from the ESE (110 degrees) at 14 MPH (12 knots; 6.2 m/s)
Visibility: 6 or more miles (10+ km)
Ceiling: unknown
Clouds: missing
Weather: NSW  (no significant weather)
Text: PROB30
Forecast period: 1200 to 1500 UTC 12 August 2020
Forecast type: TEMPORARY: The following changes expected for less than half the time period
Winds: from the ESE (120 degrees) at 17 MPH (15 knots; 7.7 m/s)
gusting to 29 MPH (25 knots; 12.9 m/s)
Visibility: missing
Ceiling: unknown
Clouds: missing
Weather: no significant weather forecast for this period
Text: TEMPO 1212/1215 12015G25KT
Forecast period: 1700 UTC 12 August 2020 to 1200 UTC 13 August 2020
Forecast type: BECOMING: Conditions expected to become as follows by 1900 UTC 12 August 2020
Winds: from the E (80 degrees) at 8 MPH (7 knots; 3.6 m/s)
Visibility: 6 or more miles (10+ km)
Ceiling: unknown
Clouds: missing
Weather: NSW  (no significant weather)